Stations météo

Publicité
Elphin, Grande-Bretagne (99153): Température de l'air & dewpoint: 21.06.2019 11:00:00 - 27.06.2019 11:00:00 (BST)Elphin, Grande-Bretagne (99153): Quantités de précipitations: 21.06.2019 11:00:00 - 27.06.2019 11:00:00 (BST)
Date & Time tt [°C] td [°C] rr [mm]
27.06.2019 11:00:00 - - -
27.06.2019 10:00:00 - - -
27.06.2019 09:00:00 - - -
27.06.2019 08:00:00 - - -
27.06.2019 07:00:00 - - -
27.06.2019 06:00:00 - - -
27.06.2019 05:00:00 - - -
27.06.2019 04:00:00 - - -
27.06.2019 03:00:00 10,1 9,7 0,0
27.06.2019 02:00:00 10,5 9,7 0,0
27.06.2019 01:00:00 10,8 9,5 0,0
27.06.2019 00:00:00 11,0 9,7 0,0
26.06.2019 23:00:00 11,1 9,8 0,0
26.06.2019 22:00:00 11,5 9,8 0,0
26.06.2019 21:00:00 11,7 9,6 0,0
26.06.2019 20:00:00 12,0 9,6 0,0
26.06.2019 19:00:00 12,3 9,1 0,0
26.06.2019 18:00:00 12,0 9,1 0,0
26.06.2019 17:00:00 12,1 9,3 0,0
26.06.2019 16:00:00 12,6 9,6 0,0
26.06.2019 15:00:00 12,2 10,7 0,0
26.06.2019 14:00:00 12,8 11,4 0,0
26.06.2019 13:00:00 12,3 10,7 0,0
26.06.2019 12:00:00 11,3 9,8 0,0
26.06.2019 11:00:00 11,8 9,4 0,0
26.06.2019 10:00:00 11,8 9,1 0,0
26.06.2019 09:00:00 11,1 8,3 0,0
26.06.2019 08:00:00 10,5 8,0 0,0
26.06.2019 07:00:00 9,2 7,6 0,0
26.06.2019 06:00:00 8,3 8,1 0,0
26.06.2019 05:00:00 5,2 5,0 0,0
26.06.2019 04:00:00 5,0 4,3 0,0
26.06.2019 03:00:00 7,2 6,5 0,0
26.06.2019 02:00:00 7,0 5,7 0,0
26.06.2019 01:00:00 8,1 6,8 0,0
26.06.2019 00:00:00 8,3 7,1 0,0
25.06.2019 23:00:00 7,7 6,4 0,0
25.06.2019 22:00:00 9,3 7,0 0,0
25.06.2019 21:00:00 13,7 8,2 0,0
25.06.2019 20:00:00 15,1 8,5 0,0
25.06.2019 19:00:00 15,5 8,9 0,0
25.06.2019 18:00:00 15,1 9,3 0,0
25.06.2019 17:00:00 15,3 9,8 0,0
25.06.2019 16:00:00 16,2 10,1 0,0
25.06.2019 15:00:00 14,7 9,7 0,0
25.06.2019 14:00:00 15,3 10,3 0,0
25.06.2019 13:00:00 15,1 10,8 0,0
25.06.2019 12:00:00 14,4 10,4 0,0
25.06.2019 11:00:00 13,4 11,3 0,0
25.06.2019 10:00:00 12,6 10,6 0,0
25.06.2019 09:00:00 12,6 10,7 0,0
25.06.2019 08:00:00 11,8 10,1 0,0
25.06.2019 07:00:00 11,7 9,8 0,0
25.06.2019 06:00:00 11,2 9,6 0,0
25.06.2019 05:00:00 11,4 9,5 0,0
25.06.2019 04:00:00 11,1 9,5 0,0
25.06.2019 03:00:00 11,3 9,5 0,0
25.06.2019 02:00:00 11,5 9,5 0,0
25.06.2019 01:00:00 11,5 9,5 0,0
25.06.2019 00:00:00 11,5 9,4 0,0
24.06.2019 23:00:00 12,6 9,0 0,0
24.06.2019 22:00:00 11,9 9,1 0,0
24.06.2019 21:00:00 11,6 9,0 0,0
24.06.2019 20:00:00 11,3 9,1 0,0
24.06.2019 19:00:00 11,5 9,3 0,2
24.06.2019 18:00:00 10,7 9,5 1,0
24.06.2019 17:00:00 10,8 9,3 0,0
24.06.2019 16:00:00 10,7 9,0 0,0
24.06.2019 15:00:00 10,9 9,6 1,2
24.06.2019 14:00:00 10,9 10,4 2,4
24.06.2019 13:00:00 11,4 10,6 0,6
24.06.2019 12:00:00 11,7 11,0 1,2
24.06.2019 11:00:00 12,0 10,4 0,0
24.06.2019 10:00:00 13,0 9,7 0,0
24.06.2019 09:00:00 12,4 10,7 0,0
24.06.2019 08:00:00 12,1 9,9 0,0
24.06.2019 07:00:00 11,8 9,6 0,0
24.06.2019 06:00:00 11,1 9,1 0,0
24.06.2019 05:00:00 11,1 8,7 0,0
24.06.2019 04:00:00 11,6 8,9 0,0
24.06.2019 03:00:00 15,7 14,9 0,0
24.06.2019 02:00:00 16,1 14,8 0,0
24.06.2019 01:00:00 13,5 7,3 0,0
24.06.2019 00:00:00 14,0 9,5 0,0
23.06.2019 23:00:00 14,1 10,3 0,0
23.06.2019 22:00:00 14,1 11,1 0,0
23.06.2019 21:00:00 15,5 11,5 0,0
23.06.2019 20:00:00 17,2 11,7 0,0
23.06.2019 19:00:00 18,4 9,3 0,0
23.06.2019 18:00:00 19,2 8,6 0,0
23.06.2019 17:00:00 22,1 16,3 0,0
23.06.2019 16:00:00 19,6 7,4 0,0
23.06.2019 15:00:00 20,1 9,6 0,0
23.06.2019 14:00:00 18,2 8,7 0,0
23.06.2019 13:00:00 17,8 9,6 0,0
23.06.2019 12:00:00 17,6 9,7 0,0
23.06.2019 11:00:00 16,3 10,3 0,0
23.06.2019 10:00:00 14,8 9,4 0,0
23.06.2019 09:00:00 13,3 9,5 0,0
23.06.2019 08:00:00 12,3 9,3 0,0
23.06.2019 07:00:00 12,0 9,4 0,0
23.06.2019 06:00:00 10,6 9,3 0,0
23.06.2019 05:00:00 9,7 8,8 0,0
23.06.2019 04:00:00 9,1 8,9 0,0
23.06.2019 03:00:00 7,6 7,4 0,0
23.06.2019 02:00:00 7,4 7,1 0,0
23.06.2019 01:00:00 7,0 6,5 0,0
23.06.2019 00:00:00 7,2 6,3 0,0
22.06.2019 23:00:00 8,4 6,0 0,0
22.06.2019 22:00:00 10,7 7,6 0,0
22.06.2019 21:00:00 14,0 8,4 0,0
22.06.2019 20:00:00 14,9 9,0 0,0
22.06.2019 19:00:00 14,9 9,5 0,0
22.06.2019 18:00:00 14,6 9,4 0,0
22.06.2019 17:00:00 15,1 9,6 0,0
22.06.2019 16:00:00 16,8 9,9 0,0
22.06.2019 15:00:00 16,3 11,0 0,0
22.06.2019 14:00:00 15,1 10,3 0,0
22.06.2019 13:00:00 15,0 9,4 0,0
22.06.2019 12:00:00 15,0 8,5 0,0
22.06.2019 11:00:00 14,7 8,5 0,0
22.06.2019 10:00:00 13,9 7,5 0,0
22.06.2019 09:00:00 12,7 7,1 0,0
22.06.2019 08:00:00 10,5 6,0 0,0
22.06.2019 07:00:00 6,6 6,4 0,0
22.06.2019 06:00:00 4,7 4,4 0,0
22.06.2019 05:00:00 4,3 4,0 0,0
22.06.2019 04:00:00 4,0 3,2 0,0
22.06.2019 03:00:00 5,9 4,4 0,0
22.06.2019 02:00:00 7,5 5,1 0,0
22.06.2019 01:00:00 8,3 5,8 0,0
22.06.2019 00:00:00 8,9 6,9 0,0
21.06.2019 23:00:00 8,7 5,5 0,0
21.06.2019 22:00:00 9,7 6,1 0,0
21.06.2019 21:00:00 10,4 6,3 0,0
21.06.2019 20:00:00 11,2 5,6 0,0
21.06.2019 19:00:00 12,5 5,8 0,0
21.06.2019 18:00:00 12,1 5,2 0,0
21.06.2019 17:00:00 12,8 6,9 0,0
21.06.2019 16:00:00 11,6 7,4 0,0
21.06.2019 15:00:00 10,9 7,9 1,4
21.06.2019 14:00:00 10,9 7,1 0,0
21.06.2019 13:00:00 10,2 7,2 0,8
21.06.2019 12:00:00 9,9 8,1 0,4
21.06.2019 11:00:00 11,2 9,0 0,4

tt = Température de l'air
td = dewpoint
rr = Quantités de précipitations

stations d'obs. à proximité